Barhom II — 5IM534 — position and weather

sailwx.info

Track history (hours):
 
Tides and Currents Weather Stations Pressure Air Temp Water Temp Dewpoint Dewpoint Depression Visibility Wind Speed Wind Dir Waves Ship Positions

Barhom II

Last reported at 2017-Aug-20 19:58 UTC. Time now 2017-Aug-20 21:11 UTC.
Position N 33°51' E 013°40'.

Length 83 m.

Type: Cargo ship. MMSI: 677043400.

Date/timePositionNaut miles runAvg speedWind from/ knotsBaromVisibWave heightAir tempDewpointWater temp
2017-Aug-20 19:58N 33°51' E 013°40'510.7
2017-Aug-20 19:30N 33°46' E 013°42'510.7
2017-Aug-20 19:00N 33°41' E 013°45'1310.7
2017-Aug-20 17:48N 33°30' E 013°52'1910.6
2017-Aug-20 16:03N 33°13' E 014°01'110.5
2017-Aug-20 15:59N 33°12' E 014°02'510.5
2017-Aug-20 15:30N 33°08' E 014°04'510.5
2017-Aug-20 15:00N 33°03' E 014°07'1210.4
2017-Aug-20 13:50N 32°52' E 014°13'11 8.3
2017-Aug-20 12:29N 32°41' E 014°16'1 1.6
2017-Aug-20 11:59N 32°41' E 014°15'0 0.0
2017-Aug-20 10:17N 32°41' E 014°15'0 0.0
2017-Aug-20 09:59N 32°41' E 014°15'0 0.0
2017-Aug-20 09:29N 32°41' E 014°15'0 0.0
2017-Aug-20 08:50N 32°41' E 014°15'0 0.0
2017-Aug-19 19:47N 32°41' E 014°15'0 0.0
2017-Aug-19 19:29N 32°41' E 014°15'0 0.0
2017-Aug-19 18:59N 32°41' E 014°15'0 0.0
2017-Aug-19 18:29N 32°41' E 014°15'0 0.0
2017-Aug-19 17:53N 32°41' E 014°15'0 0.0
2017-Aug-19 17:23N 32°41' E 014°15'0 0.0
2017-Aug-19 16:56N 32°41' E 014°15'0 0.0
2017-Aug-19 14:50N 32°41' E 014°15'0 0.0
2017-Aug-19 12:14N 32°41' E 014°15'0 0.0
2017-Aug-19 11:41N 32°41' E 014°15'0 0.0
2017-Aug-19 11:29N 32°41' E 014°15'0 0.0
2017-Aug-19 10:59N 32°41' E 014°15'0 0.0
2017-Aug-19 10:29N 32°41' E 014°15'0 0.0
2017-Aug-19 09:59N 32°41' E 014°15'0 0.0
2017-Aug-19 09:17N 32°41' E 014°15'0 0.6
2017-Aug-19 08:49N 32°41' E 014°15'1 3.7
2017-Aug-19 08:30N 32°41' E 014°16'38 2.9
2017-Aug-18 19:18N 32°55' E 014°58'410.7
2017-Aug-18 18:57N 32°56' E 015°02'3 7.2
2017-Aug-18 18:29N 32°59' E 015°05'5 9.6
2017-Aug-18 18:00N 33°00' E 015°10'810.2
2017-Aug-18 17:14N 33°03' E 015°19'2 7.3
2017-Aug-18 16:57N 33°04' E 015°20'510.5
2017-Aug-18 16:30N 33°06' E 015°26'  
2017-Aug-14 05:15N 43°28' E 028°56'310.7
2017-Aug-14 04:57N 43°31' E 028°56'510.9
2017-Aug-14 04:30N 43°36' E 028°55'611.1
2017-Aug-14 04:00N 43°41' E 028°55'510.9
2017-Aug-14 03:30N 43°46' E 028°54'510.9
2017-Aug-14 03:00N 43°52' E 028°54'510.8
2017-Aug-14 02:30N 43°57' E 028°53'510.7
2017-Aug-14 02:00N 44°03' E 028°53'511.0
2017-Aug-14 01:30N 44°08' E 028°52'510.8
2017-Aug-14 01:00N 44°13' E 028°48'611.1
2017-Aug-14 00:30N 44°17' E 028°44'4 7.5
2017-Aug-14 00:00N 44°21' E 028°41'0 0.0
2017-Aug-13 23:30N 44°21' E 028°41'0 0.0
2017-Aug-13 23:00N 44°21' E 028°41'0 0.0
2017-Aug-13 22:30N 44°21' E 028°41'0 0.0
2017-Aug-13 22:00N 44°21' E 028°41'0 0.0
2017-Aug-13 21:30N 44°21' E 028°41'0 0.0
2017-Aug-13 21:00N 44°21' E 028°41'0 0.0
2017-Aug-13 20:30N 44°21' E 028°41'0 0.0
2017-Aug-13 20:00N 44°21' E 028°41'0 0.0
2017-Aug-13 19:30N 44°21' E 028°41'0 0.0
2017-Aug-13 19:00N 44°21' E 028°41'0 0.0
2017-Aug-13 18:30N 44°21' E 028°41'0 0.0
2017-Aug-13 18:00N 44°21' E 028°41'0 0.0
2017-Aug-13 17:30N 44°21' E 028°41'0 0.0
2017-Aug-13 17:00N 44°21' E 028°41'0 0.0
2017-Aug-13 16:30N 44°21' E 028°41'0 0.0
2017-Aug-13 16:00N 44°21' E 028°41'0 0.0
2017-Aug-13 15:30N 44°21' E 028°41'0 0.0
2017-Aug-13 15:00N 44°21' E 028°41'0 0.1
2017-Aug-13 14:30N 44°21' E 028°41'2 3.7
2017-Aug-13 14:00N 44°19' E 028°42'4 7.2
2017-Aug-13 13:30N 44°16' E 028°45'510.6
2017-Aug-13 13:00N 44°12' E 028°50'510.6
2017-Aug-13 12:30N 44°08' E 028°54'510.3
2017-Aug-13 12:00N 44°03' E 028°56'510.3
2017-Aug-13 11:30N 43°58' E 028°57'510.3
2017-Aug-13 11:00N 43°52' E 028°57'510.4
2017-Aug-13 10:30N 43°47' E 028°58'510.3
2017-Aug-13 10:00N 43°42' E 028°58'510.4
2017-Aug-13 09:30N 43°37' E 028°59'1210.2
2017-Aug-13 08:21N 43°25' E 028°60'6 9.8
2017-Aug-13 07:47N 43°20' E 029°00'3 9.8
2017-Aug-13 07:30N 43°17' E 029°01'5 9.7
2017-Aug-13 06:57N 43°11' E 029°01'4 9.7
2017-Aug-13 06:30N 43°07' E 029°01'5 9.7
2017-Aug-13 06:00N 43°02' E 029°02'5 9.5
2017-Aug-13 05:30N 42°58' E 029°03'5 9.6
2017-Aug-13 05:00N 42°53' E 029°03'5 9.6
2017-Aug-13 04:30N 42°48' E 029°03'5 9.6
2017-Aug-13 03:59N 42°43' E 029°04'8 9.5
2017-Aug-13 03:12N 42°36' E 029°05'2 9.6
2017-Aug-13 02:59N 42°33' E 029°05'5 9.6
2017-Aug-13 02:30N 42°29' E 029°05'5 9.6
2017-Aug-13 02:00N 42°24' E 029°06'5 9.6
2017-Aug-13 01:30N 42°19' E 029°06'5 9.5
2017-Aug-13 01:00N 42°15' E 029°07'5 9.6
2017-Aug-13 00:30N 42°10' E 029°07'18 9.9
2017-Aug-12 22:41N 41°52' E 029°09'210.3
2017-Aug-12 22:30N 41°50' E 029°09'510.5
2017-Aug-12 22:00N 41°45' E 029°10'1210.6
2017-Aug-12 20:53N 41°33' E 029°11'25 9.7
2017-Aug-12 18:19N 41°09' E 029°04'  
Track history (hours):
 
Tides and Currents Weather Stations Pressure Air Temp Water Temp Dewpoint Dewpoint Depression Visibility Wind Speed Wind Dir Waves Ship Positions

Barhom II

Last reported at 2017-Aug-20 19:58 UTC. Time now 2017-Aug-20 21:11 UTC.
Position N 33°51' E 013°40'.

Length 83 m.

Type: Cargo ship. MMSI: 677043400.

Date/timePositionNaut miles runAvg speedWind from/ knotsBaromVisibWave heightAir tempDewpointWater temp
2017-Aug-20 19:58N 33°51' E 013°40'510.7
2017-Aug-20 19:30N 33°46' E 013°42'510.7
2017-Aug-20 19:00N 33°41' E 013°45'1310.7
2017-Aug-20 17:48N 33°30' E 013°52'1910.6
2017-Aug-20 16:03N 33°13' E 014°01'110.5
2017-Aug-20 15:59N 33°12' E 014°02'510.5
2017-Aug-20 15:30N 33°08' E 014°04'510.5
2017-Aug-20 15:00N 33°03' E 014°07'1210.4
2017-Aug-20 13:50N 32°52' E 014°13'11 8.3
2017-Aug-20 12:29N 32°41' E 014°16'1 1.6
2017-Aug-20 11:59N 32°41' E 014°15'0 0.0
2017-Aug-20 10:17N 32°41' E 014°15'0 0.0
2017-Aug-20 09:59N 32°41' E 014°15'0 0.0
2017-Aug-20 09:29N 32°41' E 014°15'0 0.0
2017-Aug-20 08:50N 32°41' E 014°15'0 0.0
2017-Aug-19 19:47N 32°41' E 014°15'0 0.0
2017-Aug-19 19:29N 32°41' E 014°15'0 0.0
2017-Aug-19 18:59N 32°41' E 014°15'0 0.0
2017-Aug-19 18:29N 32°41' E 014°15'0 0.0
2017-Aug-19 17:53N 32°41' E 014°15'0 0.0
2017-Aug-19 17:23N 32°41' E 014°15'0 0.0
2017-Aug-19 16:56N 32°41' E 014°15'0 0.0
2017-Aug-19 14:50N 32°41' E 014°15'0 0.0
2017-Aug-19 12:14N 32°41' E 014°15'0 0.0
2017-Aug-19 11:41N 32°41' E 014°15'0 0.0
2017-Aug-19 11:29N 32°41' E 014°15'0 0.0
2017-Aug-19 10:59N 32°41' E 014°15'0 0.0
2017-Aug-19 10:29N 32°41' E 014°15'0 0.0
2017-Aug-19 09:59N 32°41' E 014°15'0 0.0
2017-Aug-19 09:17N 32°41' E 014°15'0 0.6
2017-Aug-19 08:49N 32°41' E 014°15'1 3.7
2017-Aug-19 08:30N 32°41' E 014°16'38 2.9
2017-Aug-18 19:18N 32°55' E 014°58'410.7
2017-Aug-18 18:57N 32°56' E 015°02'3 7.2
2017-Aug-18 18:29N 32°59' E 015°05'5 9.6
2017-Aug-18 18:00N 33°00' E 015°10'810.2
2017-Aug-18 17:14N 33°03' E 015°19'2 7.3
2017-Aug-18 16:57N 33°04' E 015°20'510.5
2017-Aug-18 16:30N 33°06' E 015°26'  
2017-Aug-14 05:15N 43°28' E 028°56'310.7
2017-Aug-14 04:57N 43°31' E 028°56'510.9
2017-Aug-14 04:30N 43°36' E 028°55'611.1
2017-Aug-14 04:00N 43°41' E 028°55'510.9
2017-Aug-14 03:30N 43°46' E 028°54'510.9
2017-Aug-14 03:00N 43°52' E 028°54'510.8
2017-Aug-14 02:30N 43°57' E 028°53'510.7
2017-Aug-14 02:00N 44°03' E 028°53'511.0
2017-Aug-14 01:30N 44°08' E 028°52'510.8
2017-Aug-14 01:00N 44°13' E 028°48'611.1
2017-Aug-14 00:30N 44°17' E 028°44'4 7.5
2017-Aug-14 00:00N 44°21' E 028°41'0 0.0
2017-Aug-13 23:30N 44°21' E 028°41'0 0.0
2017-Aug-13 23:00N 44°21' E 028°41'0 0.0
2017-Aug-13 22:30N 44°21' E 028°41'0 0.0
2017-Aug-13 22:00N 44°21' E 028°41'0 0.0
2017-Aug-13 21:30N 44°21' E 028°41'0 0.0
2017-Aug-13 21:00N 44°21' E 028°41'0 0.0
2017-Aug-13 20:30N 44°21' E 028°41'0 0.0
2017-Aug-13 20:00N 44°21' E 028°41'0 0.0
2017-Aug-13 19:30N 44°21' E 028°41'0 0.0
2017-Aug-13 19:00N 44°21' E 028°41'0 0.0
2017-Aug-13 18:30N 44°21' E 028°41'0 0.0
2017-Aug-13 18:00N 44°21' E 028°41'0 0.0
2017-Aug-13 17:30N 44°21' E 028°41'0 0.0
2017-Aug-13 17:00N 44°21' E 028°41'0 0.0
2017-Aug-13 16:30N 44°21' E 028°41'0 0.0
2017-Aug-13 16:00N 44°21' E 028°41'0 0.0
2017-Aug-13 15:30N 44°21' E 028°41'0 0.0
2017-Aug-13 15:00N 44°21' E 028°41'0 0.1
2017-Aug-13 14:30N 44°21' E 028°41'2 3.7
2017-Aug-13 14:00N 44°19' E 028°42'4 7.2
2017-Aug-13 13:30N 44°16' E 028°45'510.6
2017-Aug-13 13:00N 44°12' E 028°50'510.6
2017-Aug-13 12:30N 44°08' E 028°54'510.3
2017-Aug-13 12:00N 44°03' E 028°56'510.3
2017-Aug-13 11:30N 43°58' E 028°57'510.3
2017-Aug-13 11:00N 43°52' E 028°57'510.4
2017-Aug-13 10:30N 43°47' E 028°58'510.3
2017-Aug-13 10:00N 43°42' E 028°58'510.4
2017-Aug-13 09:30N 43°37' E 028°59'1210.2
2017-Aug-13 08:21N 43°25' E 028°60'6 9.8
2017-Aug-13 07:47N 43°20' E 029°00'3 9.8
2017-Aug-13 07:30N 43°17' E 029°01'5 9.7
2017-Aug-13 06:57N 43°11' E 029°01'4 9.7
2017-Aug-13 06:30N 43°07' E 029°01'5 9.7
2017-Aug-13 06:00N 43°02' E 029°02'5 9.5
2017-Aug-13 05:30N 42°58' E 029°03'5 9.6
2017-Aug-13 05:00N 42°53' E 029°03'5 9.6
2017-Aug-13 04:30N 42°48' E 029°03'5 9.6
2017-Aug-13 03:59N 42°43' E 029°04'8 9.5
2017-Aug-13 03:12N 42°36' E 029°05'2 9.6
2017-Aug-13 02:59N 42°33' E 029°05'5 9.6
2017-Aug-13 02:30N 42°29' E 029°05'5 9.6
2017-Aug-13 02:00N 42°24' E 029°06'5 9.6
2017-Aug-13 01:30N 42°19' E 029°06'5 9.5
2017-Aug-13 01:00N 42°15' E 029°07'5 9.6
2017-Aug-13 00:30N 42°10' E 029°07'18 9.9
2017-Aug-12 22:41N 41°52' E 029°09'210.3
2017-Aug-12 22:30N 41°50' E 029°09'510.5
2017-Aug-12 22:00N 41°45' E 029°10'1210.6
2017-Aug-12 20:53N 41°33' E 029°11'25 9.7
2017-Aug-12 18:19N 41°09' E 029°04'  

Dump ship's entire track history